Time;durP1;ratioP1;P1;durP2;ratioP2;P2;SDS_P1;SDS_P2;PMS_P1;PMS_P2;Temp;Humidity;BMP_temperature;BMP_pressure;BME280_temperature;BME280_humidity;BME280_pressure;Samples;Min_cycle;Max_cycle;Signal;HPM_P1;HPM_P2
2021/04/17 00:01:05;;;;;;;;;;;4.50;99.90;;;;;;4995273;28;19925;-65
2021/04/17 00:03:33;;;;;;;;;;;4.50;99.90;;;;;;4995076;28;20305;-65
2021/04/17 00:06:00;;;;;;;;;;;4.40;99.90;;;;;;4993999;28;20285;-65
2021/04/17 00:08:28;;;;;;;;;;;4.40;99.90;;;;;;4977867;28;19922;-65
2021/04/17 00:11:21;;;;;;;;;;;4.50;99.90;;;;;;4995440;28;20399;-65
2021/04/17 00:13:49;;;;;;;;;;;4.40;99.90;;;;;;4994126;28;19936;-64
2021/04/17 00:16:17;;;;;;;;;;;4.40;99.90;;;;;;4978719;28;19925;-64
2021/04/17 00:18:44;;;;;;;;;;;4.40;99.90;;;;;;4996132;28;19945;-65
2021/04/17 00:21:12;;;;;;;;;;;4.40;99.90;;;;;;5001815;28;19921;-65
2021/04/17 00:23:40;;;;;;;;;;;4.30;99.90;;;;;;5003810;28;19929;-64
2021/04/17 00:26:08;;;;;;;;;;;4.20;99.90;;;;;;5004580;28;19957;-64
2021/04/17 00:28:35;;;;;;;;;;;4.20;99.90;;;;;;4994883;28;19921;-65
2021/04/17 00:31:04;;;;;;;;;;;4.20;99.90;;;;;;4995025;28;19928;-65
2021/04/17 00:33:32;;;;;;;;;;;4.20;99.90;;;;;;4993518;28;19925;-66
2021/04/17 00:36:00;;;;;;;;;;;4.30;99.90;;;;;;4994484;28;19928;-66
2021/04/17 00:38:28;;;;;;;;;;;4.20;99.90;;;;;;4994916;28;19921;-66
2021/04/17 00:40:58;;;;;;;;;;;4.20;99.90;;;;;;4994168;28;19929;-65
2021/04/17 00:43:50;;;;;;;;;;;4.20;99.90;;;;;;4993116;28;19922;-66
2021/04/17 00:46:20;;;;;;;;;;;4.20;99.90;;;;;;4994072;28;20016;-66
2021/04/17 00:48:47;;;;;;;;;;;4.10;99.90;;;;;;4993373;28;20012;-65
2021/04/17 00:51:16;;;;;;;;;;;4.20;99.90;;;;;;4994311;28;20265;-65
2021/04/17 00:53:44;;;;;;;;;;;4.10;99.90;;;;;;4994075;28;19968;-65
2021/04/17 00:56:12;;;;;;;;;;;4.10;99.90;;;;;;4992817;28;19925;-65
2021/04/17 00:58:40;;;;;;;;;;;4.00;99.90;;;;;;4994236;28;20037;-65
2021/04/17 01:01:08;;;;;;;;;;;4.00;99.90;;;;;;4993268;28;19928;-66
2021/04/17 01:03:40;;;;;;;;;;;3.90;99.90;;;;;;4994230;28;19921;-66
2021/04/17 01:06:10;;;;;;;;;;;3.90;99.90;;;;;;4994467;28;19922;-68
2021/04/17 01:08:41;;;;;;;;;;;3.80;99.90;;;;;;4995521;28;19922;-66
2021/04/17 01:11:14;;;;;;;;;;;3.70;99.90;;;;;;4998772;28;20033;-66
2021/04/17 01:13:42;;;;;;;;;;;3.60;99.90;;;;;;4998613;28;19929;-66
2021/04/17 01:16:10;;;;;;;;;;;3.60;99.90;;;;;;4997466;28;19925;-66
2021/04/17 01:18:39;;;;;;;;;;;3.60;99.90;;;;;;4999923;28;19922;-66
2021/04/17 01:21:07;;;;;;;;;;;3.60;99.90;;;;;;5001317;28;19922;-66
2021/04/17 01:23:37;;;;;;;;;;;3.50;99.90;;;;;;5000558;28;19949;-66
2021/04/17 01:26:07;;;;;;;;;;;3.60;99.90;;;;;;5002843;28;19922;-66
2021/04/17 01:28:37;;;;;;;;;;;3.60;99.90;;;;;;5004557;28;20078;-65
2021/04/17 01:31:05;;;;;;;;;;;3.60;99.90;;;;;;5009017;28;20243;-65
2021/04/17 01:33:35;;;;;;;;;;;3.70;99.90;;;;;;4997102;28;20410;-66
2021/04/17 01:36:03;;;;;;;;;;;3.70;99.90;;;;;;4997808;28;19932;-65
2021/04/17 01:38:32;;;;;;;;;;;3.70;99.90;;;;;;4997602;28;19925;-64
2021/04/17 01:41:01;;;;;;;;;;;3.60;99.90;;;;;;4997454;28;19922;-65
2021/04/17 01:43:32;;;;;;;;;;;3.60;99.90;;;;;;4997343;28;19921;-65
2021/04/17 01:46:03;;;;;;;;;;;3.60;99.90;;;;;;4997319;28;19929;-66
2021/04/17 01:48:31;;;;;;;;;;;3.60;99.90;;;;;;4997112;28;19922;-68
2021/04/17 01:51:00;;;;;;;;;;;3.60;99.90;;;;;;4997065;28;19922;-65
2021/04/17 01:53:31;;;;;;;;;;;3.60;99.90;;;;;;4996309;28;19965;-65
2021/04/17 01:55:58;;;;;;;;;;;3.60;99.90;;;;;;4995957;28;20376;-65
2021/04/17 01:58:33;;;;;;;;;;;3.50;99.90;;;;;;4996832;28;20254;-66
2021/04/17 02:01:01;;;;;;;;;;;3.50;99.90;;;;;;4996729;28;19929;-65
2021/04/17 02:03:30;;;;;;;;;;;3.40;99.90;;;;;;4996710;28;19921;-66
2021/04/17 02:05:57;;;;;;;;;;;3.30;99.90;;;;;;4996877;28;20008;-65
2021/04/17 02:08:25;;;;;;;;;;;3.30;99.90;;;;;;4995596;28;19984;-65
2021/04/17 02:13:49;;;;;;;;;;;3.30;99.90;;;;;;4996400;28;20285;-65
2021/04/17 02:16:18;;;;;;;;;;;3.30;99.90;;;;;;4995345;28;20443;-65
2021/04/17 02:18:49;;;;;;;;;;;3.30;99.90;;;;;;4996728;28;20309;-65
2021/04/17 02:21:20;;;;;;;;;;;3.30;99.90;;;;;;4996419;28;20020;-66
2021/04/17 02:23:48;;;;;;;;;;;3.20;99.90;;;;;;4996276;28;19922;-65
2021/04/17 02:26:15;;;;;;;;;;;3.20;99.90;;;;;;4995273;28;20009;-65
2021/04/17 02:28:43;;;;;;;;;;;3.10;99.90;;;;;;4996340;28;19929;-65
2021/04/17 02:31:12;;;;;;;;;;;3.10;99.90;;;;;;4996244;28;20366;-65
2021/04/17 02:33:40;;;;;;;;;;;3.10;99.90;;;;;;4994714;28;19922;-65
2021/04/17 02:36:08;;;;;;;;;;;3.10;99.90;;;;;;4996370;28;20317;-65
2021/04/17 02:38:35;;;;;;;;;;;3.10;99.90;;;;;;4995140;28;19972;-65
2021/04/17 02:41:03;;;;;;;;;;;3.10;99.90;;;;;;4996276;28;20472;-65
2021/04/17 02:43:33;;;;;;;;;;;3.10;99.90;;;;;;4996584;28;19922;-65
2021/04/17 02:46:00;;;;;;;;;;;3.10;99.90;;;;;;4996581;28;19922;-64
2021/04/17 02:48:28;;;;;;;;;;;3.10;99.90;;;;;;4994990;28;19948;-65
2021/04/17 02:50:56;;;;;;;;;;;3.10;99.90;;;;;;4995937;28;19922;-65
2021/04/17 02:53:23;;;;;;;;;;;3.10;99.90;;;;;;4995969;28;20032;-65
2021/04/17 02:55:51;;;;;;;;;;;3.10;99.90;;;;;;4994732;28;19964;-67
2021/04/17 02:58:18;;;;;;;;;;;3.10;99.90;;;;;;4978429;28;19921;-64
2021/04/17 03:00:46;;;;;;;;;;;3.10;99.90;;;;;;4996426;28;19929;-67
2021/04/17 03:03:13;;;;;;;;;;;3.10;99.90;;;;;;4996456;28;20062;-65
2021/04/17 03:05:41;;;;;;;;;;;3.10;99.90;;;;;;4995825;28;19928;-65
2021/04/17 03:08:09;;;;;;;;;;;3.10;99.90;;;;;;4994439;28;20333;-65
2021/04/17 03:10:36;;;;;;;;;;;3.10;99.90;;;;;;4977965;28;25043;-65
2021/04/17 03:13:04;;;;;;;;;;;3.10;99.90;;;;;;4995515;28;19980;-65
2021/04/17 03:15:32;;;;;;;;;;;3.10;99.90;;;;;;4996009;28;20428;-65
2021/04/17 03:18:01;;;;;;;;;;;3.10;99.90;;;;;;4995522;28;19954;-65
2021/04/17 03:20:53;;;;;;;;;;;3.10;99.90;;;;;;4995808;28;19957;-66
2021/04/17 03:23:22;;;;;;;;;;;3.10;99.90;;;;;;4995607;28;19929;-65
2021/04/17 03:25:49;;;;;;;;;;;3.00;99.90;;;;;;4995260;28;20374;-64
2021/04/17 03:28:17;;;;;;;;;;;3.00;99.90;;;;;;4994349;28;19949;-65
2021/04/17 03:30:44;;;;;;;;;;;2.90;99.90;;;;;;4995467;28;19952;-65
2021/04/17 03:33:12;;;;;;;;;;;2.90;99.90;;;;;;4993894;28;19922;-65
2021/04/17 03:36:05;;;;;;;;;;;2.90;99.90;;;;;;4995192;28;19932;-66
2021/04/17 03:38:34;;;;;;;;;;;2.90;99.90;;;;;;4995658;28;19921;-65
2021/04/17 03:41:02;;;;;;;;;;;2.90;99.90;;;;;;4995404;28;20012;-65
2021/04/17 03:43:32;;;;;;;;;;;2.90;99.90;;;;;;4994976;28;19922;-65
2021/04/17 03:45:59;;;;;;;;;;;2.90;99.90;;;;;;4995285;28;20324;-65
2021/04/17 03:48:30;;;;;;;;;;;2.90;99.90;;;;;;4994890;28;19976;-64
2021/04/17 03:50:57;;;;;;;;;;;2.90;99.90;;;;;;4995135;28;20274;-65
2021/04/17 03:53:25;;;;;;;;;;;2.90;99.90;;;;;;4995070;28;19926;-65
2021/04/17 03:55:53;;;;;;;;;;;3.00;99.90;;;;;;4993682;28;19922;-68
2021/04/17 03:58:48;;;;;;;;;;;3.00;99.90;;;;;;4995253;28;20358;-65
2021/04/17 04:01:16;;;;;;;;;;;3.00;99.90;;;;;;4993385;28;19929;-65
2021/04/17 04:03:44;;;;;;;;;;;3.10;99.90;;;;;;4995201;28;19926;-65
2021/04/17 04:06:11;;;;;;;;;;;3.10;99.90;;;;;;4994901;28;19992;-65
2021/04/17 04:08:38;;;;;;;;;;;3.10;99.90;;;;;;4995113;28;20278;-68
2021/04/17 04:11:08;;;;;;;;;;;3.10;99.90;;;;;;4993857;28;19921;-65
2021/04/17 04:13:35;;;;;;;;;;;3.00;99.90;;;;;;4995438;28;19926;-64
2021/04/17 04:16:03;;;;;;;;;;;3.10;99.90;;;;;;4995461;28;19972;-66
2021/04/17 04:18:31;;;;;;;;;;;3.10;99.90;;;;;;4995751;28;19960;-65
2021/04/17 04:20:59;;;;;;;;;;;3.10;99.90;;;;;;4995759;28;19968;-65
2021/04/17 04:23:26;;;;;;;;;;;3.20;99.90;;;;;;4993790;28;20346;-65
2021/04/17 04:25:54;;;;;;;;;;;3.30;99.90;;;;;;4995026;28;19996;-65
2021/04/17 04:28:22;;;;;;;;;;;3.40;99.90;;;;;;4995195;28;20448;-65
2021/04/17 04:30:50;;;;;;;;;;;3.40;99.90;;;;;;4995003;28;19922;-65
2021/04/17 04:33:24;;;;;;;;;;;3.40;99.90;;;;;;4978924;28;19932;-65
2021/04/17 04:35:51;;;;;;;;;;;3.50;99.90;;;;;;5009280;28;19925;-65
2021/04/17 04:38:19;;;;;;;;;;;3.50;99.90;;;;;;4997499;28;19922;-65
2021/04/17 04:40:46;;;;;;;;;;;3.50;99.90;;;;;;5009053;28;19974;-66
2021/04/17 04:43:13;;;;;;;;;;;3.60;99.90;;;;;;5012588;28;19925;-67
2021/04/17 04:45:42;;;;;;;;;;;3.60;99.90;;;;;;5014439;28;19941;-65
2021/04/17 04:48:34;;;;;;;;;;;3.60;99.90;;;;;;5015345;28;19945;-65
2021/04/17 04:51:26;;;;;;;;;;;3.60;99.90;;;;;;5014196;28;19980;-66
2021/04/17 04:53:54;;;;;;;;;;;3.60;99.90;;;;;;4995686;28;19922;-65
2021/04/17 04:56:21;;;;;;;;;;;3.60;99.90;;;;;;4993876;28;19964;-65
2021/04/17 04:58:51;;;;;;;;;;;3.60;99.90;;;;;;5014271;28;20028;-65
2021/04/17 05:01:19;;;;;;;;;;;3.60;99.90;;;;;;5000042;28;19976;-66
2021/04/17 05:03:46;;;;;;;;;;;3.70;99.90;;;;;;4998815;28;19928;-65
2021/04/17 05:06:39;;;;;;;;;;;3.70;99.90;;;;;;4997341;28;19926;-65
2021/04/17 05:09:06;;;;;;;;;;;3.70;99.90;;;;;;4998810;28;19921;-65
2021/04/17 05:11:37;;;;;;;;;;;3.80;99.90;;;;;;4997045;28;19926;-65
2021/04/17 05:14:05;;;;;;;;;;;3.80;99.90;;;;;;4996927;28;19926;-65
2021/04/17 05:16:33;;;;;;;;;;;3.90;99.90;;;;;;4998434;28;19961;-65
2021/04/17 05:19:00;;;;;;;;;;;3.90;99.90;;;;;;4998501;28;20353;-65
2021/04/17 05:21:28;;;;;;;;;;;3.90;99.90;;;;;;4997663;28;19926;-65
2021/04/17 05:24:24;;;;;;;;;;;3.90;99.90;;;;;;4998860;28;19926;-65
2021/04/17 05:26:51;;;;;;;;;;;3.90;99.90;;;;;;5002643;28;19931;-66
2021/04/17 05:29:19;;;;;;;;;;;3.90;99.90;;;;;;5004849;28;20289;-64
2021/04/17 05:31:47;;;;;;;;;;;3.90;99.90;;;;;;5002926;28;20016;-66
2021/04/17 05:34:14;;;;;;;;;;;4.00;99.90;;;;;;5006992;28;19992;-65
2021/04/17 05:36:41;;;;;;;;;;;4.00;99.90;;;;;;5005702;28;19937;-65
2021/04/17 05:39:10;;;;;;;;;;;4.10;99.90;;;;;;5003521;28;19925;-65
2021/04/17 05:41:37;;;;;;;;;;;4.10;99.90;;;;;;4998165;28;19922;-66
2021/04/17 05:44:11;;;;;;;;;;;4.10;99.90;;;;;;4996621;28;19929;-64
2021/04/17 05:46:39;;;;;;;;;;;4.10;99.90;;;;;;4996834;28;19922;-65
2021/04/17 05:49:08;;;;;;;;;;;4.10;99.90;;;;;;4996438;28;19929;-65
2021/04/17 05:51:35;;;;;;;;;;;4.20;99.90;;;;;;4997607;28;20395;-65
2021/04/17 05:54:03;;;;;;;;;;;4.40;99.90;;;;;;4996484;28;20321;-64
2021/04/17 05:56:30;;;;;;;;;;;4.60;99.90;;;;;;4997565;28;20384;-64
2021/04/17 05:58:57;;;;;;;;;;;4.70;99.90;;;;;;4997349;28;19922;-65
2021/04/17 06:01:25;;;;;;;;;;;4.60;99.90;;;;;;4996135;28;20057;-64
2021/04/17 06:03:53;;;;;;;;;;;4.70;99.90;;;;;;4995472;28;19921;-65
2021/04/17 06:06:26;;;;;;;;;;;4.80;99.90;;;;;;4997288;28;19922;-65
2021/04/17 06:08:56;;;;;;;;;;;4.90;99.90;;;;;;4995887;28;20357;-65
2021/04/17 06:11:24;;;;;;;;;;;5.00;99.90;;;;;;4996426;28;19929;-64
2021/04/17 06:13:51;;;;;;;;;;;5.00;99.90;;;;;;4997015;28;19922;-64
2021/04/17 06:16:19;;;;;;;;;;;5.00;99.90;;;;;;4996730;28;19948;-64
2021/04/17 06:19:03;;;;;;;;;;;5.10;99.90;;;;;;4996277;28;19921;-65
2021/04/17 06:21:56;;;;;;;;;;;5.00;99.90;;;;;;4995360;28;19921;-65
2021/04/17 06:24:25;;;;;;;;;;;5.00;99.90;;;;;;4996406;28;20452;-67
2021/04/17 06:26:52;;;;;;;;;;;5.10;99.90;;;;;;4996348;28;20338;-64
2021/04/17 06:29:20;;;;;;;;;;;5.20;99.90;;;;;;4997179;28;20345;-67
2021/04/17 06:31:48;;;;;;;;;;;5.20;99.90;;;;;;4995694;28;19933;-67
2021/04/17 06:34:15;;;;;;;;;;;5.40;99.90;;;;;;4996320;28;19921;-65
2021/04/17 06:36:43;;;;;;;;;;;5.70;99.90;;;;;;4996492;28;20350;-64
2021/04/17 06:39:11;;;;;;;;;;;5.90;99.90;;;;;;4995913;28;19968;-65
2021/04/17 06:41:41;;;;;;;;;;;6.50;99.90;;;;;;4996698;28;19922;-64
2021/04/17 06:44:08;;;;;;;;;;;6.60;99.90;;;;;;4995944;28;20429;-65
2021/04/17 06:46:38;;;;;;;;;;;6.80;99.90;;;;;;4996248;28;19927;-65
2021/04/17 06:49:06;;;;;;;;;;;7.90;99.90;;;;;;4996619;28;20289;-65
2021/04/17 06:51:35;;;;;;;;;;;8.70;99.90;;;;;;4995340;28;19921;-65
2021/04/17 06:54:04;;;;;;;;;;;9.20;98.70;;;;;;4995096;28;19922;-65
2021/04/17 06:56:32;;;;;;;;;;;8.50;98.70;;;;;;4996230;28;20354;-65
2021/04/17 06:59:00;;;;;;;;;;;8.90;98.80;;;;;;4995047;28;19980;-66
2021/04/17 07:01:29;;;;;;;;;;;8.90;99.30;;;;;;4997933;28;20026;-66
2021/04/17 07:03:58;;;;;;;;;;;9.70;97.70;;;;;;5010990;28;19926;-67
2021/04/17 07:06:25;;;;;;;;;;;10.80;95.70;;;;;;5009136;28;19968;-66
2021/04/17 07:08:59;;;;;;;;;;;11.20;93.20;;;;;;5011050;28;19922;-66
2021/04/17 07:11:26;;;;;;;;;;;10.50;92.20;;;;;;5004228;28;19942;-66
2021/04/17 07:14:08;;;;;;;;;;;11.10;93.10;;;;;;4996438;28;20481;-66
2021/04/17 07:16:54;;;;;;;;;;;12.10;91.00;;;;;;4995795;28;20004;-65
2021/04/17 07:19:22;;;;;;;;;;;11.60;90.40;;;;;;4996201;28;19956;-66
2021/04/17 07:21:49;;;;;;;;;;;10.40;91.90;;;;;;4996538;28;20301;-66
2021/04/17 07:24:24;;;;;;;;;;;9.10;94.40;;;;;;4993784;28;20373;-67
2021/04/17 07:26:52;;;;;;;;;;;9.20;95.40;;;;;;4994534;28;20404;-65
2021/04/17 07:29:20;;;;;;;;;;;9.50;95.00;;;;;;4994525;28;19963;-65
2021/04/17 07:31:49;;;;;;;;;;;9.10;94.90;;;;;;4994546;28;19929;-65
2021/04/17 07:34:17;;;;;;;;;;;8.60;95.80;;;;;;4995859;28;19928;-65
2021/04/17 07:36:50;;;;;;;;;;;8.30;96.30;;;;;;4995794;28;19925;-66
2021/04/17 07:39:41;;;;;;;;;;;8.60;96.40;;;;;;4995288;28;19965;-65
2021/04/17 07:42:10;;;;;;;;;;;9.50;95.40;;;;;;4985665;28;19925;-65
2021/04/17 07:44:43;;;;;;;;;;;9.90;94.60;;;;;;4995401;28;19957;-65
2021/04/17 07:47:29;;;;;;;;;;;10.10;92.70;;;;;;4993799;28;19928;-65
2021/04/17 07:50:03;;;;;;;;;;;9.90;93.20;;;;;;4994053;28;19922;-65
2021/04/17 07:52:32;;;;;;;;;;;9.50;92.10;;;;;;4995500;28;20413;-66
2021/04/17 07:55:30;;;;;;;;;;;9.60;92.20;;;;;;4995352;28;20309;-65
2021/04/17 07:58:05;;;;;;;;;;;9.60;91.50;;;;;;4995112;28;19961;-65
2021/04/17 08:00:33;;;;;;;;;;;9.60;91.40;;;;;;4994841;28;19957;-65
2021/04/17 08:03:01;;;;;;;;;;;10.10;89.70;;;;;;4995148;28;19958;-65
2021/04/17 08:05:28;;;;;;;;;;;10.40;88.40;;;;;;4994701;28;20019;-65
2021/04/17 08:07:57;;;;;;;;;;;11.40;88.10;;;;;;4994571;28;19928;-65
2021/04/17 08:10:24;;;;;;;;;;;11.90;81.70;;;;;;4994849;28;20403;-66
2021/04/17 08:12:52;;;;;;;;;;;11.90;80.60;;;;;;4995543;28;19957;-65
2021/04/17 08:15:20;;;;;;;;;;;12.50;81.70;;;;;;4995110;28;20278;-64
2021/04/17 08:17:49;;;;;;;;;;;12.90;77.40;;;;;;4995191;28;19921;-65
2021/04/17 08:20:18;;;;;;;;;;;12.50;77.00;;;;;;4996664;28;19962;-65
2021/04/17 08:22:48;;;;;;;;;;;11.80;80.00;;;;;;4995810;28;19962;-65
2021/04/17 08:25:19;;;;;;;;;;;10.90;84.30;;;;;;4993708;28;19958;-65
2021/04/17 08:27:47;;;;;;;;;;;10.70;86.80;;;;;;4995112;28;19965;-66
2021/04/17 08:30:19;;;;;;;;;;;9.80;85.80;;;;;;4993761;28;19960;-65
2021/04/17 08:32:46;;;;;;;;;;;9.40;86.90;;;;;;4995392;28;19958;-63
2021/04/17 08:35:17;;;;;;;;;;;9.40;86.80;;;;;;4995855;28;19960;-65
2021/04/17 08:38:08;;;;;;;;;;;9.40;87.10;;;;;;4998999;28;20002;-65
2021/04/17 08:40:41;;;;;;;;;;;9.40;85.20;;;;;;4999155;28;19964;-66
2021/04/17 08:46:15;;;;;;;;;;;9.00;86.30;;;;;;4998705;28;19925;-65
2021/04/17 08:48:51;;;;;;;;;;;9.00;85.70;;;;;;4998857;28;19932;-65
2021/04/17 08:51:26;;;;;;;;;;;9.60;86.90;;;;;;4997316;28;19930;-65
2021/04/17 08:54:10;;;;;;;;;;;9.60;83.70;;;;;;4999083;28;19945;-65
2021/04/17 08:56:47;;;;;;;;;;;9.60;83.40;;;;;;4999518;28;19964;-65
2021/04/17 08:59:18;;;;;;;;;;;9.50;84.20;;;;;;4999563;28;20521;-68
2021/04/17 09:01:47;;;;;;;;;;;10.20;81.70;;;;;;4981728;28;19968;-65
2021/04/17 09:04:14;;;;;;;;;;;10.10;78.90;;;;;;4999224;28;19964;-65
2021/04/17 09:06:44;;;;;;;;;;;10.40;80.90;;;;;;4999463;28;19957;-65
2021/04/17 09:09:27;;;;;;;;;;;10.30;80.90;;;;;;4999903;28;19958;-65
2021/04/17 09:11:55;;;;;;;;;;;10.20;82.20;;;;;;4998089;28;20360;-65
2021/04/17 09:14:41;;;;;;;;;;;9.50;84.50;;;;;;4999293;28;19956;-64
2021/04/17 09:17:28;;;;;;;;;;;9.50;85.60;;;;;;4999237;28;19953;-65
2021/04/17 09:19:56;;;;;;;;;;;9.60;86.30;;;;;;4998913;28;19922;-65
2021/04/17 09:22:38;;;;;;;;;;;9.40;86.40;;;;;;5000859;28;20369;-65
2021/04/17 09:25:07;;;;;;;;;;;9.50;87.20;;;;;;4999020;28;20389;-66
2021/04/17 09:27:35;;;;;;;;;;;9.10;88.10;;;;;;4999819;28;19922;-65
2021/04/17 09:30:04;;;;;;;;;;;9.20;89.00;;;;;;4998731;28;19922;-64
2021/04/17 09:32:37;;;;;;;;;;;8.70;90.50;;;;;;4999415;28;19929;-64
2021/04/17 09:35:13;;;;;;;;;;;8.50;91.10;;;;;;4998801;28;19929;-65
2021/04/17 09:37:40;;;;;;;;;;;8.60;91.70;;;;;;5003251;28;19945;-64
2021/04/17 09:40:09;;;;;;;;;;;8.80;91.50;;;;;;5017886;28;19944;-66
2021/04/17 09:42:37;;;;;;;;;;;9.00;90.90;;;;;;5016554;28;19945;-65
2021/04/17 09:45:06;;;;;;;;;;;9.10;90.80;;;;;;5017839;28;19960;-65
2021/04/17 09:47:33;;;;;;;;;;;9.80;91.00;;;;;;5016575;28;19988;-65
2021/04/17 09:50:19;;;;;;;;;;;9.60;90.40;;;;;;5015099;28;19988;-65
2021/04/17 09:53:37;;;;;;;;;;;8.80;90.90;;;;;;5017630;28;19922;-65
2021/04/17 09:56:07;;;;;;;;;;;8.90;91.80;;;;;;5016674;28;19984;-66
2021/04/17 09:58:35;;;;;;;;;;;9.30;92.00;;;;;;5008279;28;19966;-65
2021/04/17 10:01:06;;;;;;;;;;;9.00;92.50;;;;;;5007004;28;19961;-65
2021/04/17 10:03:35;;;;;;;;;;;9.30;92.60;;;;;;5004849;28;19978;-65
2021/04/17 10:06:03;;;;;;;;;;;9.00;92.70;;;;;;5008999;28;19966;-64
2021/04/17 10:08:34;;;;;;;;;;;8.60;92.80;;;;;;5006144;28;19959;-65
2021/04/17 10:11:08;;;;;;;;;;;8.50;93.00;;;;;;5008593;28;20493;-65
2021/04/17 10:13:41;;;;;;;;;;;8.10;94.10;;;;;;5009512;28;19983;-65
2021/04/17 10:16:09;;;;;;;;;;;8.00;95.00;;;;;;5005664;28;19968;-65
2021/04/17 10:18:38;;;;;;;;;;;7.90;94.40;;;;;;5011391;28;19997;-65
2021/04/17 10:21:07;;;;;;;;;;;8.00;94.50;;;;;;5000478;28;20002;-64
2021/04/17 10:23:34;;;;;;;;;;;7.80;94.80;;;;;;4997940;28;19963;-64
2021/04/17 10:26:05;;;;;;;;;;;7.70;95.00;;;;;;4998139;28;19999;-65
2021/04/17 10:28:34;;;;;;;;;;;7.90;95.40;;;;;;4998573;28;20313;-65
2021/04/17 10:31:08;;;;;;;;;;;8.00;95.40;;;;;;4997804;28;20374;-65
2021/04/17 10:33:41;;;;;;;;;;;7.90;96.10;;;;;;4998069;28;19963;-65
2021/04/17 10:36:15;;;;;;;;;;;7.80;96.40;;;;;;4998430;28;19963;-64
2021/04/17 10:38:42;;;;;;;;;;;7.70;97.10;;;;;;4998339;28;20433;-65
2021/04/17 10:41:13;;;;;;;;;;;7.50;97.70;;;;;;4997884;28;19945;-67
2021/04/17 10:43:40;;;;;;;;;;;7.30;98.40;;;;;;5014439;28;19922;-67
2021/04/17 10:46:08;;;;;;;;;;;7.20;99.70;;;;;;4999102;28;20327;-65
2021/04/17 10:48:43;;;;;;;;;;;6.90;99.90;;;;;;4999168;28;19921;-65
2021/04/17 10:51:12;;;;;;;;;;;6.60;99.90;;;;;;4998770;28;19932;-65
2021/04/17 10:53:40;;;;;;;;;;;6.80;99.90;;;;;;4999427;28;19957;-64
2021/04/17 10:56:12;;;;;;;;;;;7.20;99.90;;;;;;4996858;28;19921;-64
2021/04/17 10:58:40;;;;;;;;;;;7.20;99.90;;;;;;5000018;28;19932;-66
2021/04/17 11:01:09;;;;;;;;;;;7.40;99.90;;;;;;5000520;28;20011;-66
2021/04/17 11:03:40;;;;;;;;;;;7.80;99.90;;;;;;4999901;28;19956;-67
2021/04/17 11:06:11;;;;;;;;;;;8.10;99.60;;;;;;5001049;28;19956;-66
2021/04/17 11:08:39;;;;;;;;;;;8.10;98.90;;;;;;5002777;28;20262;-66
2021/04/17 11:11:10;;;;;;;;;;;8.40;98.10;;;;;;5005420;28;20014;-65
2021/04/17 11:13:39;;;;;;;;;;;8.50;97.90;;;;;;5008926;28;19909;-66
2021/04/17 11:16:06;;;;;;;;;;;8.60;97.40;;;;;;5001453;28;20060;-64
2021/04/17 11:18:39;;;;;;;;;;;8.00;97.90;;;;;;4996085;28;19953;-66
2021/04/17 11:21:14;;;;;;;;;;;7.50;99.00;;;;;;4996418;28;19992;-68
2021/04/17 11:23:43;;;;;;;;;;;7.40;99.40;;;;;;4995934;28;19978;-65
2021/04/17 11:26:14;;;;;;;;;;;7.60;99.20;;;;;;4995473;28;20050;-65
2021/04/17 11:28:44;;;;;;;;;;;7.70;99.20;;;;;;4978317;28;19962;-65
2021/04/17 11:31:12;;;;;;;;;;;7.70;99.10;;;;;;4994654;28;20444;-66
2021/04/17 11:33:40;;;;;;;;;;;7.50;99.50;;;;;;4994188;28;19973;-64
2021/04/17 11:36:09;;;;;;;;;;;7.40;99.80;;;;;;4993859;28;19963;-67
2021/04/17 11:38:36;;;;;;;;;;;7.20;99.80;;;;;;4993839;28;19968;-65
2021/04/17 11:41:04;;;;;;;;;;;7.10;99.90;;;;;;4995452;28;19960;-67
2021/04/17 11:43:31;;;;;;;;;;;7.10;99.90;;;;;;4995144;28;20302;-64
2021/04/17 11:46:23;;;;;;;;;;;7.10;99.90;;;;;;4994341;28;19962;-65
2021/04/17 11:48:52;;;;;;;;;;;7.20;99.90;;;;;;4994543;28;19966;-65
2021/04/17 11:54:11;;;;;;;;;;;7.10;99.70;;;;;;4995685;28;20277;-67
2021/04/17 11:56:38;;;;;;;;;;;6.90;99.90;;;;;;4994125;28;19970;-65
2021/04/17 11:59:05;;;;;;;;;;;7.10;99.90;;;;;;4994940;28;20037;-65
2021/04/17 12:01:33;;;;;;;;;;;7.50;99.90;;;;;;4992872;28;20016;-65
2021/04/17 12:04:02;;;;;;;;;;;7.70;99.20;;;;;;4994911;28;19957;-65
2021/04/17 12:06:29;;;;;;;;;;;7.50;99.30;;;;;;4995893;28;20012;-67
2021/04/17 12:09:00;;;;;;;;;;;7.30;99.60;;;;;;4994891;28;20424;-66
2021/04/17 12:11:27;;;;;;;;;;;7.50;99.70;;;;;;4994722;28;19989;-66
2021/04/17 12:13:55;;;;;;;;;;;7.30;99.90;;;;;;4994163;28;19962;-65
2021/04/17 12:16:22;;;;;;;;;;;7.20;99.90;;;;;;4994301;28;19961;-65
2021/04/17 12:18:50;;;;;;;;;;;7.30;99.60;;;;;;4994069;28;19960;-65
2021/04/17 12:21:19;;;;;;;;;;;7.60;99.20;;;;;;4994607;28;20431;-66
2021/04/17 12:23:47;;;;;;;;;;;8.10;98.60;;;;;;4994546;28;19992;-66
2021/04/17 12:26:15;;;;;;;;;;;8.10;98.10;;;;;;4994796;28;20016;-70
2021/04/17 12:28:42;;;;;;;;;;;8.00;97.80;;;;;;4993804;28;19972;-67
2021/04/17 12:31:10;;;;;;;;;;;8.30;98.00;;;;;;4993370;28;19930;-64
2021/04/17 12:33:37;;;;;;;;;;;8.70;97.10;;;;;;4994455;28;19980;-63
2021/04/17 12:36:11;;;;;;;;;;;8.60;96.80;;;;;;4994325;28;19988;-65
2021/04/17 12:38:39;;;;;;;;;;;8.30;96.80;;;;;;4993247;28;20270;-65
2021/04/17 12:41:06;;;;;;;;;;;8.60;96.50;;;;;;4994470;28;19929;-66
2021/04/17 12:43:36;;;;;;;;;;;8.40;97.10;;;;;;4994543;28;20018;-65
2021/04/17 12:46:04;;;;;;;;;;;8.10;97.20;;;;;;4992163;28;19972;-66
2021/04/17 12:48:32;;;;;;;;;;;8.00;97.60;;;;;;4994819;28;19949;-66
2021/04/17 12:50:59;;;;;;;;;;;8.20;98.10;;;;;;4977088;28;19967;-66
2021/04/17 12:53:27;;;;;;;;;;;8.30;97.30;;;;;;4992958;28;19926;-65
2021/04/17 12:55:55;;;;;;;;;;;7.70;97.80;;;;;;4994805;28;20012;-65
2021/04/17 12:58:23;;;;;;;;;;;7.90;98.30;;;;;;4977507;28;19926;-66
2021/04/17 13:00:51;;;;;;;;;;;8.00;98.30;;;;;;4992893;28;19949;-66
2021/04/17 13:03:19;;;;;;;;;;;7.70;98.30;;;;;;4995094;28;20430;-66
2021/04/17 13:05:46;;;;;;;;;;;7.80;98.50;;;;;;4995166;28;20000;-67
2021/04/17 13:08:13;;;;;;;;;;;7.50;98.40;;;;;;4994179;28;20354;-67
2021/04/17 13:10:41;;;;;;;;;;;7.30;99.10;;;;;;4995533;28;19933;-66
2021/04/17 13:13:09;;;;;;;;;;;7.20;99.30;;;;;;4977527;28;20391;-67
2021/04/17 13:15:37;;;;;;;;;;;7.20;99.20;;;;;;4993860;28;19991;-66
2021/04/17 13:18:05;;;;;;;;;;;7.40;99.40;;;;;;4993156;28;20374;-67
2021/04/17 13:20:32;;;;;;;;;;;7.40;99.40;;;;;;4977264;28;20017;-66
2021/04/17 13:22:59;;;;;;;;;;;7.40;99.60;;;;;;4979674;28;19930;-69
2021/04/17 13:25:27;;;;;;;;;;;7.40;99.80;;;;;;4998832;28;19933;-66
2021/04/17 13:27:54;;;;;;;;;;;7.50;99.50;;;;;;5012928;28;19973;-65
2021/04/17 13:36:08;;;;;;;;;;;7.50;98.70;;;;;;4997238;28;19933;-66
2021/04/17 13:38:35;;;;;;;;;;;7.30;98.80;;;;;;4996244;28;19926;-65
2021/04/17 13:41:02;;;;;;;;;;;7.40;99.00;;;;;;4996420;28;19930;-66
2021/04/17 13:43:30;;;;;;;;;;;7.60;99.00;;;;;;4996533;28;19970;-65
2021/04/17 13:45:59;;;;;;;;;;;7.40;99.00;;;;;;4997678;28;20021;-66
2021/04/17 13:48:26;;;;;;;;;;;7.50;99.00;;;;;;4996392;28;20401;-66
2021/04/17 13:50:54;;;;;;;;;;;7.30;99.60;;;;;;4997770;28;20406;-68
2021/04/17 13:53:21;;;;;;;;;;;7.30;99.90;;;;;;4998038;28;19964;-65
2021/04/17 13:55:49;;;;;;;;;;;7.30;99.90;;;;;;4997909;28;19951;-66
2021/04/17 13:58:16;;;;;;;;;;;7.30;99.90;;;;;;4996270;28;19952;-65
2021/04/17 14:00:44;;;;;;;;;;;7.30;99.90;;;;;;4996600;28;20012;-65
2021/04/17 14:03:13;;;;;;;;;;;7.40;99.90;;;;;;4997417;28;19964;-66
2021/04/17 14:05:41;;;;;;;;;;;7.40;99.90;;;;;;4997290;28;19966;-65
2021/04/17 14:08:08;;;;;;;;;;;7.30;99.90;;;;;;4996279;28;20046;-65
2021/04/17 14:10:36;;;;;;;;;;;7.50;99.90;;;;;;5005600;28;19977;-65
2021/04/17 14:13:03;;;;;;;;;;;7.30;99.90;;;;;;4996737;28;19962;-67
2021/04/17 14:15:34;;;;;;;;;;;7.10;99.90;;;;;;4995916;28;19969;-65
2021/04/17 14:18:02;;;;;;;;;;;7.10;99.90;;;;;;4997226;28;20411;-65
2021/04/17 14:20:30;;;;;;;;;;;7.30;99.90;;;;;;4998090;28;20052;-64
2021/04/17 14:22:57;;;;;;;;;;;7.10;99.90;;;;;;4997160;28;19961;-65
2021/04/17 14:25:24;;;;;;;;;;;7.00;99.90;;;;;;4996898;28;19960;-65
2021/04/17 14:27:52;;;;;;;;;;;7.10;99.90;;;;;;4996765;28;20008;-65
2021/04/17 14:30:20;;;;;;;;;;;6.90;99.90;;;;;;4994367;28;19988;-66
2021/04/17 14:32:47;;;;;;;;;;;6.90;99.90;;;;;;4996203;28;20443;-68
2021/04/17 14:35:17;;;;;;;;;;;6.80;99.90;;;;;;4979501;28;20466;-66
2021/04/17 14:37:45;;;;;;;;;;;6.90;99.90;;;;;;4996393;28;20384;-66
2021/04/17 14:40:12;;;;;;;;;;;7.00;99.90;;;;;;4994737;28;19978;-64
2021/04/17 14:42:59;;;;;;;;;;;7.00;99.90;;;;;;4995323;28;20015;-65
2021/04/17 14:45:27;;;;;;;;;;;7.10;99.90;;;;;;4994862;28;20012;-65
2021/04/17 14:47:54;;;;;;;;;;;7.00;99.90;;;;;;4994559;28;20010;-65
2021/04/17 14:50:22;;;;;;;;;;;7.20;99.90;;;;;;4995828;28;19968;-65
2021/04/17 14:53:10;;;;;;;;;;;7.30;99.90;;;;;;4994166;28;19981;-65
2021/04/17 14:55:57;;;;;;;;;;;7.30;99.90;;;;;;4994699;28;19968;-65
2021/04/17 14:58:25;;;;;;;;;;;7.20;99.90;;;;;;4995825;28;20014;-66
2021/04/17 15:00:52;;;;;;;;;;;7.20;99.90;;;;;;4994850;28;20054;-67